createdAt,value
2022-10-04T00:00:31.104Z,4.28
2022-10-04T00:03:09.146Z,5.15
2022-10-04T00:05:37.768Z,3.88
2022-10-04T00:08:19.665Z,4.47
2022-10-04T00:10:46.670Z,4.20
2022-10-04T00:13:25.165Z,4.10
2022-10-04T00:15:52.658Z,4.88
2022-10-04T00:18:38.630Z,5.20
2022-10-04T00:21:07.900Z,4.18
2022-10-04T00:23:37.298Z,4.45
2022-10-04T00:26:06.739Z,4.05
2022-10-04T00:28:36.495Z,3.97
2022-10-04T00:31:25.239Z,4.43
2022-10-04T00:34:17.848Z,4.53
2022-10-04T00:36:57.369Z,3.55
2022-10-04T00:39:34.446Z,4.53
2022-10-04T00:42:10.190Z,4.18
2022-10-04T00:45:06.691Z,3.55
2022-10-04T00:47:56.937Z,3.70
2022-10-04T00:50:30.325Z,3.85
2022-10-04T00:53:00.111Z,4.28
2022-10-04T00:55:52.591Z,3.50
2022-10-04T00:58:24.958Z,3.83
2022-10-04T01:00:56.972Z,3.60
2022-10-04T01:03:34.384Z,3.38
2022-10-04T01:06:05.469Z,3.38
2022-10-04T01:08:38.328Z,3.50
2022-10-04T01:11:11.958Z,4.32
2022-10-04T01:13:43.282Z,3.10
2022-10-04T01:16:25.457Z,3.10
2022-10-04T01:18:52.407Z,2.95
2022-10-04T01:21:19.331Z,3.47
2022-10-04T01:24:15.981Z,3.17
2022-10-04T01:26:45.430Z,3.00
2022-10-04T01:29:14.866Z,3.28
2022-10-04T01:31:50.166Z,2.72
2022-10-04T01:34:19.370Z,3.60
2022-10-04T01:36:48.584Z,3.70
2022-10-04T01:39:17.359Z,3.72
2022-10-04T01:41:55.480Z,3.80
2022-10-04T01:44:48.246Z,3.80
2022-10-04T01:47:22.646Z,3.30
2022-10-04T01:49:53.467Z,2.35
2022-10-04T01:52:35.604Z,2.55
2022-10-04T01:55:12.898Z,3.28
2022-10-04T01:58:03.407Z,3.28
2022-10-04T02:00:31.660Z,2.95
2022-10-04T02:03:03.981Z,3.58
2022-10-04T02:05:36.062Z,3.30
2022-10-04T02:08:06.673Z,3.75
2022-10-04T02:10:41.014Z,3.15
2022-10-04T02:13:14.010Z,3.00
2022-10-04T02:15:41.159Z,2.65
2022-10-04T02:18:17.073Z,2.47
2022-10-04T02:20:44.990Z,2.33
2022-10-04T02:23:12.875Z,2.40
2022-10-04T02:25:39.716Z,2.50
2022-10-04T02:28:11.069Z,2.50
2022-10-04T02:31:11.477Z,2.13
2022-10-04T02:33:48.534Z,2.40
2022-10-04T02:36:17.128Z,2.35
2022-10-04T02:39:15.819Z,2.53
2022-10-04T02:41:51.122Z,2.60
2022-10-04T02:44:45.334Z,3.03
2022-10-04T02:47:18.165Z,3.50
2022-10-04T02:49:58.377Z,3.42
2022-10-04T02:52:46.351Z,3.20
2022-10-04T02:55:25.114Z,4.05
2022-10-04T02:57:53.770Z,3.22
2022-10-04T03:00:20.751Z,3.63
2022-10-04T03:03:11.985Z,2.80
2022-10-04T03:05:40.345Z,3.00
2022-10-04T03:08:07.836Z,2.70
2022-10-04T03:10:35.860Z,2.83
2022-10-04T03:13:03.637Z,3.70
2022-10-04T03:15:31.140Z,2.45
2022-10-04T03:17:59.663Z,2.65
2022-10-04T03:20:27.124Z,2.63
2022-10-04T03:22:55.970Z,2.70
2022-10-04T03:25:29.621Z,2.25
2022-10-04T03:28:02.113Z,3.20
2022-10-04T03:30:30.013Z,2.58
2022-10-04T03:32:57.144Z,2.20
2022-10-04T03:35:34.824Z,2.20
2022-10-04T03:38:08.907Z,2.35
2022-10-04T03:40:37.876Z,2.65
2022-10-04T03:43:06.582Z,2.13
2022-10-04T03:45:35.218Z,2.03
2022-10-04T03:48:09.946Z,1.85
2022-10-04T03:50:45.037Z,2.90
2022-10-04T03:53:35.325Z,3.92
2022-10-04T03:56:04.568Z,4.55
2022-10-04T03:58:31.950Z,4.35
2022-10-04T04:01:29.267Z,4.50
2022-10-04T04:04:18.823Z,4.32
2022-10-04T04:07:03.208Z,5.05
2022-10-04T04:09:43.049Z,4.53
2022-10-04T04:12:14.984Z,3.90
2022-10-04T04:14:42.838Z,4.03
2022-10-04T04:17:27.902Z,4.03
2022-10-04T04:20:01.236Z,3.97
2022-10-04T04:22:31.671Z,3.60
2022-10-04T04:25:02.354Z,3.20
2022-10-04T04:27:33.368Z,3.42
2022-10-04T04:30:01.792Z,4.05
2022-10-04T04:32:36.745Z,4.10
2022-10-04T04:35:20.899Z,4.25
2022-10-04T04:38:17.187Z,4.18
2022-10-04T04:40:44.559Z,4.30
2022-10-04T04:43:18.517Z,3.95
2022-10-04T04:45:58.187Z,3.38
2022-10-04T04:48:36.512Z,3.88
2022-10-04T04:51:06.171Z,4.40
2022-10-04T04:53:32.940Z,8.43
2022-10-04T04:56:04.196Z,4.30
2022-10-04T04:58:35.837Z,4.93
2022-10-04T05:01:28.654Z,5.40
2022-10-04T05:04:12.457Z,4.55
2022-10-04T05:06:44.498Z,4.55
2022-10-04T05:09:34.647Z,3.30
2022-10-04T05:12:22.717Z,3.80
2022-10-04T05:14:55.004Z,3.80
2022-10-04T05:17:30.499Z,3.55
2022-10-04T05:20:00.230Z,3.92
2022-10-04T05:22:28.620Z,4.53
2022-10-04T05:25:07.956Z,4.60
2022-10-04T05:27:40.237Z,4.45
2022-10-04T05:30:33.447Z,4.55
2022-10-04T05:33:13.791Z,3.72
2022-10-04T05:36:22.097Z,3.85
2022-10-04T05:38:54.366Z,4.40
2022-10-04T05:41:33.592Z,4.28
2022-10-04T05:44:02.434Z,5.45
2022-10-04T05:46:34.711Z,4.95
2022-10-04T05:49:06.198Z,5.18
2022-10-04T05:51:38.245Z,4.95
2022-10-04T05:54:07.959Z,5.10
2022-10-04T05:57:08.299Z,5.00
2022-10-04T05:59:52.915Z,5.05
2022-10-04T06:02:57.920Z,5.40
2022-10-04T06:06:01.650Z,5.18
2022-10-04T06:08:47.210Z,5.07
2022-10-04T06:11:32.006Z,5.28
2022-10-04T06:14:23.348Z,4.70
2022-10-04T06:16:52.912Z,5.40
2022-10-04T06:19:25.435Z,5.80
2022-10-04T06:22:20.686Z,5.60
2022-10-04T06:24:53.537Z,6.32
2022-10-04T06:27:43.927Z,5.78
2022-10-04T06:30:17.075Z,5.43
2022-10-04T06:33:02.394Z,5.28
2022-10-04T06:36:13.643Z,5.13
2022-10-04T06:38:40.496Z,5.47
2022-10-04T06:41:22.380Z,5.80
2022-10-04T06:44:02.914Z,6.20
2022-10-04T06:46:50.375Z,6.28
2022-10-04T06:49:46.198Z,6.38
2022-10-04T06:52:25.674Z,6.13
2022-10-04T06:55:02.553Z,5.97
2022-10-04T06:57:48.210Z,5.90
2022-10-04T07:00:26.318Z,5.97
2022-10-04T07:03:01.744Z,6.38
2022-10-04T07:05:49.742Z,6.13
2022-10-04T07:08:31.501Z,6.50
2022-10-04T07:11:24.150Z,6.57
2022-10-04T07:14:03.833Z,6.30
2022-10-04T07:16:48.376Z,5.35
2022-10-04T07:19:23.786Z,6.38
2022-10-04T07:22:21.528Z,7.30
2022-10-04T07:25:05.852Z,6.85
2022-10-04T07:28:12.277Z,6.72
2022-10-04T07:30:45.754Z,6.85
2022-10-04T07:33:18.548Z,7.82
2022-10-04T07:35:53.368Z,6.32
2022-10-04T07:38:28.361Z,5.95
2022-10-04T07:41:19.390Z,6.65
2022-10-04T07:44:12.926Z,7.00
2022-10-04T07:46:42.631Z,7.82
2022-10-04T07:49:17.228Z,8.82
2022-10-04T07:52:05.511Z,7.55
2022-10-04T07:54:49.304Z,7.20
2022-10-04T07:58:12.724Z,6.57
2022-10-04T08:01:20.715Z,6.25
2022-10-04T08:03:59.487Z,7.03
2022-10-04T08:06:33.579Z,6.57
2022-10-04T08:09:34.847Z,6.57
2022-10-04T08:12:26.280Z,6.57
2022-10-04T08:14:53.081Z,6.97
2022-10-04T08:17:46.317Z,6.90
2022-10-04T08:20:48.342Z,7.88
2022-10-04T08:23:33.101Z,7.25
2022-10-04T08:26:11.829Z,7.80
2022-10-04T08:29:29.048Z,7.88
2022-10-04T08:32:32.248Z,8.63
2022-10-04T08:35:36.413Z,6.93
2022-10-04T08:38:13.376Z,6.75
2022-10-04T08:41:03.062Z,6.72
2022-10-04T08:43:56.805Z,6.65
2022-10-04T08:47:00.703Z,7.75
2022-10-04T08:49:33.594Z,7.75
2022-10-04T08:52:06.125Z,7.40
2022-10-04T08:54:57.078Z,6.20
2022-10-04T08:57:52.864Z,6.30
2022-10-04T09:00:48.925Z,7.60
2022-10-04T09:03:35.610Z,11.20
2022-10-04T09:08:57.059Z,7.30
2022-10-04T09:12:11.117Z,7.00
2022-10-04T09:15:13.984Z,8.45
2022-10-04T09:18:14.781Z,18.95
2022-10-04T09:21:03.771Z,9.77
2022-10-04T09:24:06.968Z,7.35
2022-10-04T09:26:44.235Z,6.45
2022-10-04T09:29:42.111Z,7.15
2022-10-04T09:32:50.076Z,6.50
2022-10-04T09:35:25.748Z,6.97
2022-10-04T09:38:40.151Z,6.80
2022-10-04T09:41:34.889Z,6.75
2022-10-04T09:44:33.882Z,6.07
2022-10-04T09:47:38.048Z,6.80
2022-10-04T09:50:26.744Z,6.85
2022-10-04T09:53:03.337Z,5.75
2022-10-04T09:55:50.320Z,7.07
2022-10-04T09:58:32.047Z,6.10
2022-10-04T10:01:04.685Z,6.43
2022-10-04T10:04:05.505Z,5.00
2022-10-04T10:07:10.506Z,5.70
2022-10-04T10:10:09.668Z,4.95
2022-10-04T10:13:32.920Z,5.15
2022-10-04T10:16:20.899Z,4.70
2022-10-04T10:19:05.572Z,9.02
2022-10-04T10:22:11.315Z,8.73
2022-10-04T10:24:44.170Z,4.80
2022-10-04T10:27:25.046Z,5.03
2022-10-04T10:29:59.355Z,5.40
2022-10-04T10:32:44.836Z,4.50
2022-10-04T10:35:39.254Z,9.20
2022-10-04T10:38:32.134Z,10.73
2022-10-04T10:41:52.936Z,5.55
2022-10-04T10:44:55.069Z,5.00
2022-10-04T10:47:39.559Z,4.50
2022-10-04T10:50:58.487Z,4.32
2022-10-04T10:53:47.029Z,9.25
2022-10-04T10:56:59.595Z,5.07
2022-10-04T10:59:44.157Z,9.82
2022-10-04T11:02:48.891Z,4.85
2022-10-04T11:05:38.212Z,25.52
2022-10-04T11:08:44.790Z,14.73
2022-10-04T11:11:20.695Z,5.32
2022-10-04T11:13:48.344Z,2.90
2022-10-04T11:16:35.450Z,11.32
2022-10-04T11:19:39.582Z,10.95
2022-10-04T11:22:12.362Z,3.63
2022-10-04T11:25:36.470Z,3.25
2022-10-04T11:28:12.452Z,5.47
2022-10-04T11:33:58.913Z,3.38
2022-10-04T11:36:39.785Z,2.40
2022-10-04T11:39:48.895Z,2.58
2022-10-04T11:42:26.181Z,2.38
2022-10-04T11:45:27.256Z,2.05
2022-10-04T11:48:21.112Z,2.38
2022-10-04T11:50:51.381Z,2.85
2022-10-04T11:53:39.530Z,2.60
2022-10-04T11:56:19.300Z,2.05
2022-10-04T11:58:52.044Z,1.88
2022-10-04T12:01:59.784Z,2.47
2022-10-04T12:04:50.301Z,1.90
2022-10-04T12:07:34.213Z,2.00
2022-10-04T12:10:25.281Z,1.52
2022-10-04T12:13:16.131Z,1.58
2022-10-04T12:16:34.280Z,1.90
2022-10-04T12:19:00.953Z,1.40
2022-10-04T12:21:46.072Z,2.30
2022-10-04T12:24:33.688Z,2.13
2022-10-04T12:27:24.881Z,2.03
2022-10-04T12:30:03.476Z,1.65
2022-10-04T12:32:49.111Z,2.55
2022-10-04T12:35:45.402Z,2.10
2022-10-04T12:38:15.262Z,1.40
2022-10-04T12:41:16.937Z,2.00
2022-10-04T12:44:07.220Z,2.05
2022-10-04T12:47:21.222Z,3.25
2022-10-04T12:50:13.872Z,2.38
2022-10-04T12:53:04.160Z,2.10
2022-10-04T12:55:45.890Z,1.63
2022-10-04T12:58:48.713Z,1.88
2022-10-04T13:01:24.254Z,1.80
2022-10-04T13:04:20.175Z,1.60
2022-10-04T13:07:15.850Z,1.35
2022-10-04T13:09:42.487Z,1.95
2022-10-04T13:12:31.211Z,1.50
2022-10-04T13:15:19.647Z,1.55
2022-10-04T13:18:18.392Z,1.52
2022-10-04T13:21:01.185Z,1.38
2022-10-04T13:23:58.249Z,2.22
2022-10-04T13:26:33.817Z,1.30
2022-10-04T13:29:17.058Z,1.33
2022-10-04T13:32:15.989Z,1.48
2022-10-04T13:34:52.754Z,1.58
2022-10-04T13:37:27.962Z,2.20
2022-10-04T13:40:21.960Z,1.60
2022-10-04T13:43:15.976Z,1.88
2022-10-04T13:45:53.263Z,1.60
2022-10-04T13:48:51.070Z,1.75
2022-10-04T13:51:45.084Z,1.70
2022-10-04T13:54:45.928Z,2.13
2022-10-04T13:57:22.020Z,1.40
2022-10-04T14:02:34.714Z,2.55
2022-10-04T14:05:31.591Z,1.20
2022-10-04T14:08:48.314Z,2.15
2022-10-04T14:11:53.739Z,1.50
2022-10-04T14:14:33.346Z,1.40
2022-10-04T14:17:23.213Z,2.13
2022-10-04T14:20:23.477Z,1.25
2022-10-04T14:23:20.247Z,1.67
2022-10-04T14:26:23.051Z,1.85
2022-10-04T14:29:09.503Z,1.60
2022-10-04T14:31:47.123Z,1.52
2022-10-04T14:34:26.764Z,1.60
2022-10-04T14:37:15.057Z,2.13
2022-10-04T14:40:08.036Z,1.40
2022-10-04T14:43:00.985Z,1.83
2022-10-04T14:46:11.083Z,1.63
2022-10-04T14:48:53.457Z,1.75
2022-10-04T14:51:37.714Z,1.75
2022-10-04T14:54:14.866Z,1.90
2022-10-04T14:56:46.312Z,1.42
2022-10-04T14:59:14.806Z,1.55
2022-10-04T15:02:18.122Z,1.48
2022-10-04T15:05:19.832Z,1.55
2022-10-04T15:07:54.636Z,1.55
2022-10-04T15:10:32.930Z,1.42
2022-10-04T15:13:47.955Z,1.67
2022-10-04T15:16:38.491Z,1.42
2022-10-04T15:19:12.116Z,1.50
2022-10-04T15:22:04.794Z,2.10
2022-10-04T15:24:48.885Z,1.65
2022-10-04T15:27:33.596Z,2.00
2022-10-04T15:30:12.477Z,1.45
2022-10-04T15:33:16.583Z,1.50
2022-10-04T15:36:24.782Z,2.25
2022-10-04T15:39:04.910Z,1.50
2022-10-04T15:41:31.739Z,1.48
2022-10-04T15:44:33.337Z,1.90
2022-10-04T15:47:20.146Z,1.83
2022-10-04T15:50:23.987Z,1.90
2022-10-04T15:53:00.348Z,2.35
2022-10-04T15:55:35.681Z,2.15
2022-10-04T15:58:50.622Z,3.90
2022-10-04T16:01:26.229Z,1.87
2022-10-04T16:04:11.730Z,1.77
2022-10-04T16:07:07.574Z,2.20
2022-10-04T16:09:37.511Z,1.67
2022-10-04T16:12:29.210Z,2.60
2022-10-04T16:15:00.964Z,2.13
2022-10-04T16:17:57.588Z,1.73
2022-10-04T16:20:27.587Z,1.73
2022-10-04T16:23:24.055Z,1.85
2022-10-04T16:26:16.016Z,2.30
2022-10-04T16:29:00.582Z,2.28
2022-10-04T16:31:47.539Z,2.53
2022-10-04T16:34:14.205Z,3.10
2022-10-04T16:37:14.323Z,2.47
2022-10-04T16:40:02.297Z,18.17
2022-10-04T16:42:54.619Z,7.35
2022-10-04T16:45:39.268Z,6.40
2022-10-04T16:48:05.987Z,5.95
2022-10-04T16:50:52.274Z,5.40
2022-10-04T16:53:32.609Z,9.45
2022-10-04T16:56:17.971Z,10.45
2022-10-04T16:58:52.271Z,31.80
2022-10-04T17:01:27.606Z,14.02
2022-10-04T17:04:03.319Z,22.67
2022-10-04T17:06:51.546Z,23.40
2022-10-04T17:09:31.880Z,17.60
2022-10-04T17:12:32.754Z,18.42
2022-10-04T17:15:28.574Z,14.38
2022-10-04T17:18:17.450Z,13.63
2022-10-04T17:20:47.380Z,15.20
2022-10-04T17:23:44.061Z,15.85
2022-10-04T17:26:38.364Z,13.20
2022-10-04T17:29:08.142Z,12.05
2022-10-04T17:31:44.120Z,16.58
2022-10-04T17:34:33.385Z,30.75
2022-10-04T17:37:31.746Z,11.32
2022-10-04T17:40:13.576Z,12.65
2022-10-04T17:42:46.543Z,18.88
2022-10-04T17:45:19.279Z,10.20
2022-10-04T17:48:11.870Z,9.95
2022-10-04T17:51:23.974Z,9.38
2022-10-04T17:54:38.615Z,12.00
2022-10-04T17:57:05.283Z,11.95
2022-10-04T17:59:46.506Z,8.20
2022-10-04T18:02:21.771Z,8.48
2022-10-04T18:04:57.059Z,8.90
2022-10-04T18:07:28.699Z,10.70
2022-10-04T18:10:17.620Z,14.98
2022-10-04T18:12:57.822Z,11.25
2022-10-04T18:15:38.710Z,8.25
2022-10-04T18:18:29.575Z,6.68
2022-10-04T18:21:19.893Z,6.63
2022-10-04T18:23:54.344Z,5.47
2022-10-04T18:26:22.502Z,6.47
2022-10-04T18:28:50.940Z,7.00
2022-10-04T18:31:29.259Z,5.85
2022-10-04T18:34:01.397Z,5.97
2022-10-04T18:36:33.424Z,5.35
2022-10-04T18:39:17.750Z,6.65
2022-10-04T18:41:54.673Z,6.57
2022-10-04T18:44:27.393Z,7.10
2022-10-04T18:46:57.824Z,6.88
2022-10-04T18:49:29.153Z,7.55
2022-10-04T18:51:58.900Z,8.60
2022-10-04T18:54:41.839Z,7.63
2022-10-04T18:57:27.301Z,8.65
2022-10-04T19:00:31.936Z,11.55
2022-10-04T19:03:16.082Z,10.18
2022-10-04T19:05:51.374Z,8.45
2022-10-04T19:08:33.147Z,8.33
2022-10-04T19:11:09.336Z,7.60
2022-10-04T19:16:36.032Z,7.55
2022-10-04T19:19:34.937Z,8.05
2022-10-04T19:22:26.476Z,6.88
2022-10-04T19:24:57.817Z,6.05
2022-10-04T19:27:31.788Z,6.07
2022-10-04T19:30:24.317Z,6.47
2022-10-04T19:33:14.067Z,6.32
2022-10-04T19:35:46.330Z,8.27
2022-10-04T19:38:40.238Z,5.93
2022-10-04T19:41:29.040Z,6.00
2022-10-04T19:44:20.257Z,5.05
2022-10-04T19:46:56.035Z,5.47
2022-10-04T19:49:25.728Z,5.10
2022-10-04T19:51:58.761Z,5.38
2022-10-04T19:54:32.855Z,6.22
2022-10-04T19:57:02.517Z,5.60
2022-10-04T19:59:42.484Z,5.20
2022-10-04T20:02:10.651Z,5.13
2022-10-04T20:04:42.269Z,4.07
2022-10-04T20:07:28.369Z,5.47
2022-10-04T20:10:22.413Z,6.93
2022-10-04T20:13:25.415Z,8.35
2022-10-04T20:16:00.444Z,6.30
2022-10-04T20:18:33.923Z,6.53
2022-10-04T20:21:01.325Z,8.35
2022-10-04T20:23:47.883Z,6.43
2022-10-04T20:26:54.505Z,5.55
2022-10-04T20:30:13.484Z,5.32
2022-10-04T20:32:40.452Z,5.32
2022-10-04T20:35:14.004Z,5.57
2022-10-04T20:38:07.872Z,7.15
2022-10-04T20:40:45.930Z,8.70
2022-10-04T20:43:15.879Z,8.60
2022-10-04T20:45:51.343Z,10.75
2022-10-04T20:48:21.660Z,11.55
2022-10-04T20:50:49.952Z,12.57
2022-10-04T20:53:27.795Z,13.43
2022-10-04T20:56:11.760Z,13.38
2022-10-04T20:58:40.332Z,12.88
2022-10-04T21:01:30.424Z,12.15
2022-10-04T21:04:32.548Z,10.25
2022-10-04T21:07:08.173Z,8.52
2022-10-04T21:09:37.525Z,6.75
2022-10-04T21:12:06.380Z,7.05
2022-10-04T21:14:35.177Z,7.45
2022-10-04T21:17:03.939Z,7.30
2022-10-04T21:19:33.875Z,6.18
2022-10-04T21:22:02.738Z,6.60
2022-10-04T21:24:39.879Z,7.05
2022-10-04T21:27:09.435Z,6.85
2022-10-04T21:29:37.038Z,7.32
2022-10-04T21:32:04.257Z,8.07
2022-10-04T21:34:51.895Z,6.75
2022-10-04T21:37:18.580Z,7.72
2022-10-04T21:39:45.461Z,8.10
2022-10-04T21:42:12.180Z,8.50
2022-10-04T21:44:38.984Z,8.75
2022-10-04T21:47:05.767Z,7.95
2022-10-04T21:49:32.506Z,7.30
2022-10-04T21:51:59.308Z,6.97
2022-10-04T21:54:26.022Z,7.20
2022-10-04T21:56:53.903Z,9.65
2022-10-04T21:59:21.020Z,9.63
2022-10-04T22:01:47.731Z,9.27
2022-10-04T22:04:14.417Z,7.47
2022-10-04T22:06:41.328Z,6.90
2022-10-04T22:09:08.915Z,7.00
2022-10-04T22:11:36.397Z,6.20
2022-10-04T22:14:03.326Z,5.90
2022-10-04T22:16:30.095Z,6.75
2022-10-04T22:18:56.880Z,6.38
2022-10-04T22:21:23.607Z,8.18
2022-10-04T22:23:50.302Z,5.20
2022-10-04T22:26:19.845Z,5.95
2022-10-04T22:28:49.102Z,5.50
2022-10-04T22:31:38.483Z,6.07
2022-10-04T22:34:16.073Z,6.35
2022-10-04T22:36:48.194Z,5.78
2022-10-04T22:39:17.982Z,5.05
2022-10-04T22:41:46.596Z,4.38
2022-10-04T22:44:20.838Z,3.30
2022-10-04T22:47:01.347Z,3.80
2022-10-04T22:49:36.662Z,4.28
2022-10-04T22:52:12.187Z,4.20
2022-10-04T22:54:43.733Z,3.75
2022-10-04T22:57:11.709Z,4.10
2022-10-04T22:59:44.282Z,3.92
2022-10-04T23:02:24.187Z,3.28
2022-10-04T23:04:54.216Z,3.80
2022-10-04T23:07:21.522Z,3.50
2022-10-04T23:09:48.714Z,4.05
2022-10-04T23:12:15.502Z,3.88
2022-10-04T23:14:42.356Z,3.95
2022-10-04T23:17:17.737Z,3.92
2022-10-04T23:19:44.412Z,3.50
2022-10-04T23:22:17.299Z,3.72
2022-10-04T23:24:44.164Z,3.78
2022-10-04T23:27:17.293Z,3.80
2022-10-04T23:29:46.507Z,4.00
2022-10-04T23:32:16.210Z,3.72
2022-10-04T23:34:46.224Z,4.05
2022-10-04T23:37:33.974Z,4.55
2022-10-04T23:40:00.699Z,3.40
2022-10-04T23:42:32.070Z,3.08
2022-10-04T23:45:00.352Z,3.70
2022-10-04T23:47:34.089Z,3.83
2022-10-04T23:50:02.129Z,5.18
2022-10-04T23:52:36.724Z,3.92
2022-10-04T23:55:17.012Z,4.13
2022-10-04T23:57:43.768Z,4.50
